Time;durP1;ratioP1;P1;durP2;ratioP2;P2;SDS_P1;SDS_P2;PMS_P1;PMS_P2;Temp;Humidity;BMP_temperature;BMP_pressure;BME280_temperature;BME280_humidity;BME280_pressure;Samples;Min_cycle;Max_cycle;Signal;HPM_P1;HPM_P2
2022/05/05 06:44:51;;;;;;;19.20;8.25;;;12.70;99.90;;;;;;5111305;27;20469;-75
2022/05/05 06:47:16;;;;;;;18.25;8.07;;;12.10;99.90;;;;;;5111440;28;20163;-75
2022/05/05 06:49:42;;;;;;;15.30;7.53;;;12.20;99.90;;;;;;5110477;28;20167;-76
2022/05/05 06:52:07;;;;;;;17.25;7.47;;;12.10;99.90;;;;;;5110216;28;20516;-75
2022/05/05 06:54:33;;;;;;;13.02;8.27;;;12.30;99.90;;;;;;5110660;28;20186;-75
2022/05/05 06:56:59;;;;;;;23.45;9.05;;;12.20;99.90;;;;;;5110818;28;20205;-75
2022/05/05 06:59:25;;;;;;;18.30;8.00;;;12.30;99.90;;;;;;5110802;28;20202;-75
2022/05/05 07:01:54;;;;;;;14.45;7.78;;;12.30;99.90;;;;;;5110961;28;20213;-77
2022/05/05 07:07:05;;;;;;;12.88;7.13;;;12.60;99.90;;;;;;5110858;28;20213;-76
2022/05/05 07:12:15;;;;;;;7.80;5.07;;;12.80;99.90;;;;;;5110781;28;20198;-76
2022/05/05 07:14:43;;;;;;;12.05;5.40;;;12.80;99.90;;;;;;5110803;28;20571;-76
2022/05/05 07:17:09;;;;;;;7.63;5.25;;;12.90;99.90;;;;;;5110687;28;20522;-76
2022/05/05 07:19:35;;;;;;;8.93;6.05;;;13.00;99.90;;;;;;5110615;28;20171;-76
2022/05/05 07:22:01;;;;;;;12.90;6.22;;;13.10;99.90;;;;;;5110598;28;20253;-76
2022/05/05 07:24:26;;;;;;;12.32;6.50;;;13.20;99.90;;;;;;5110476;28;20191;-76
2022/05/05 07:26:52;;;;;;;19.95;8.55;;;13.20;99.90;;;;;;5109190;28;20178;-76
2022/05/05 07:29:17;;;;;;;10.30;6.22;;;13.30;99.90;;;;;;5109179;28;20655;-76
2022/05/05 07:31:44;;;;;;;11.88;6.30;;;13.30;99.90;;;;;;5110371;28;20159;-76
2022/05/05 07:34:10;;;;;;;10.63;6.30;;;13.40;99.90;;;;;;5110180;28;20640;-76
2022/05/05 07:36:36;;;;;;;14.20;6.57;;;13.40;99.90;;;;;;5110338;28;20170;-76
2022/05/05 07:39:01;;;;;;;13.73;7.78;;;13.50;99.90;;;;;;5110262;28;20504;-76
2022/05/05 07:41:27;;;;;;;13.23;7.10;;;13.50;99.90;;;;;;5110233;28;20625;-75
2022/05/05 07:43:52;;;;;;;17.33;9.45;;;13.60;99.90;;;;;;5109885;28;20223;-76
2022/05/05 07:46:18;;;;;;;13.60;8.20;;;13.60;99.90;;;;;;5108870;28;20175;-75
2022/05/05 07:48:45;;;;;;;16.08;6.95;;;13.60;99.90;;;;;;5110064;28;20223;-75
2022/05/05 07:51:11;;;;;;;12.82;7.72;;;13.60;99.90;;;;;;5110038;28;20175;-75
2022/05/05 07:53:36;;;;;;;19.58;8.02;;;13.70;99.90;;;;;;5109949;28;20172;-75
2022/05/05 07:56:02;;;;;;;15.27;8.35;;;13.70;99.90;;;;;;5097312;28;20220;-75
2022/05/05 07:58:28;;;;;;;19.50;8.27;;;13.80;99.90;;;;;;5096332;28;20168;-75
2022/05/05 08:00:53;;;;;;;13.95;8.60;;;13.80;99.90;;;;;;5096288;28;20583;-76
2022/05/05 08:03:19;;;;;;;18.17;9.80;;;13.90;99.90;;;;;;5094842;28;20281;-76
2022/05/05 08:05:45;;;;;;;12.57;8.02;;;13.90;99.90;;;;;;5096181;28;20163;-75
2022/05/05 08:08:10;;;;;;;14.88;7.65;;;13.90;99.90;;;;;;5096132;28;20209;-76
2022/05/05 08:10:36;;;;;;;25.38;6.75;;;14.00;99.90;;;;;;5096107;28;20536;-75
2022/05/05 08:13:03;;;;;;;14.85;7.32;;;14.00;99.90;;;;;;5096002;28;20629;-76
2022/05/05 08:15:30;;;;;;;13.00;7.68;;;14.00;99.90;;;;;;5095990;28;20552;-75
2022/05/05 08:17:55;;;;;;;16.40;7.18;;;14.00;99.90;;;;;;5095890;28;20167;-75
2022/05/05 08:20:21;;;;;;;12.18;7.18;;;14.00;99.90;;;;;;5095869;28;20180;-75
2022/05/05 08:22:46;;;;;;;17.98;7.55;;;14.00;99.90;;;;;;5095826;28;20184;-75
2022/05/05 08:30:40;;;;;;;14.73;7.93;;;14.10;99.90;;;;;;5095787;28;20255;-75
2022/05/05 08:33:06;;;;;;;13.90;7.85;;;14.20;99.90;;;;;;5094376;28;20588;-75
2022/05/05 08:35:32;;;;;;;17.55;6.75;;;14.20;99.90;;;;;;5095530;28;20233;-76
2022/05/05 08:37:57;;;;;;;11.07;7.13;;;14.20;99.90;;;;;;5094272;28;20224;-75
2022/05/05 08:40:27;;;;;;;16.83;7.88;;;14.20;99.90;;;;;;5095495;28;20177;-75
2022/05/05 08:42:53;;;;;;;18.15;7.50;;;14.20;99.90;;;;;;5095116;28;20216;-74
2022/05/05 08:45:20;;;;;;;11.82;7.25;;;14.30;99.90;;;;;;5094091;28;20174;-76
2022/05/05 08:47:47;;;;;;;10.35;7.13;;;14.30;99.90;;;;;;5095358;28;20505;-75
2022/05/05 08:50:13;;;;;;;15.52;8.20;;;14.20;99.90;;;;;;5095382;28;20640;-75
2022/05/05 08:52:48;;;;;;;12.35;8.77;;;14.30;99.90;;;;;;5095270;28;20246;-75
2022/05/05 08:55:15;;;;;;;10.57;8.13;;;14.30;99.90;;;;;;5095288;28;20242;-75
2022/05/05 08:57:42;;;;;;;14.32;7.05;;;14.40;99.90;;;;;;5095146;28;20156;-75
2022/05/05 09:00:10;;;;;;;15.15;8.05;;;14.30;99.90;;;;;;5095133;28;20658;-75
2022/05/05 09:02:35;;;;;;;12.40;8.00;;;14.40;99.90;;;;;;5094993;28;20175;-75
2022/05/05 09:05:03;;;;;;;17.13;8.15;;;14.40;99.90;;;;;;5095082;28;20255;-75
2022/05/05 09:07:48;;;;;;;23.95;10.68;;;14.40;99.90;;;;;;5093960;28;20160;-75
2022/05/05 09:10:15;;;;;;;26.50;12.25;;;14.50;99.90;;;;;;5094915;28;20254;-75
2022/05/05 09:12:41;;;;;;;19.48;9.40;;;14.50;99.90;;;;;;5093517;28;20633;-75
2022/05/05 09:15:10;;;;;;;17.40;10.48;;;14.60;99.90;;;;;;5094863;28;20218;-75
2022/05/05 09:17:36;;;;;;;24.35;11.55;;;14.60;99.90;;;;;;5094713;28;20242;-75
2022/05/05 09:20:03;;;;;;;20.60;12.02;;;14.60;99.90;;;;;;5094761;28;20571;-75
2022/05/05 09:22:29;;;;;;;20.75;10.82;;;14.70;99.90;;;;;;5094530;28;20553;-75
2022/05/05 09:24:56;;;;;;;20.23;11.30;;;14.80;99.90;;;;;;5094586;28;20172;-75
2022/05/05 09:27:33;;;;;;;22.40;11.18;;;14.80;99.90;;;;;;5094603;28;20256;-75
2022/05/05 09:30:05;;;;;;;21.05;10.35;;;14.80;99.90;;;;;;5093236;28;20193;-75
2022/05/05 09:32:36;;;;;;;18.33;10.95;;;15.10;99.90;;;;;;5094488;28;20568;-75
2022/05/05 09:35:06;;;;;;;15.60;11.10;;;15.30;99.90;;;;;;5094350;28;20226;-75
2022/05/05 09:37:32;;;;;;;18.23;11.05;;;15.50;99.90;;;;;;5094448;28;20160;-75
2022/05/05 09:40:00;;;;;;;18.20;11.45;;;15.70;99.90;;;;;;5094386;28;20179;-75
2022/05/05 09:42:49;;;;;;;18.65;10.85;;;15.90;99.90;;;;;;5094128;28;20199;-74
2022/05/05 09:45:18;;;;;;;20.83;10.55;;;16.10;99.90;;;;;;5094308;28;20171;-75
2022/05/05 09:47:49;;;;;;;13.82;10.05;;;16.20;99.90;;;;;;5094124;28;20195;-75
2022/05/05 09:50:16;;;;;;;18.95;10.23;;;16.40;99.90;;;;;;5094167;28;20243;-75
2022/05/05 09:58:16;;;;;;;16.98;9.90;;;16.70;99.90;;;;;;5094100;28;20666;-75
2022/05/05 10:00:47;;;;;;;14.77;9.65;;;16.80;99.90;;;;;;5094057;28;20164;-75
2022/05/05 10:06:16;;;;;;;18.25;10.45;;;16.90;99.90;;;;;;5093889;28;20207;-75
2022/05/05 10:08:45;;;;;;;14.70;9.38;;;17.00;99.90;;;;;;5093940;28;20693;-75
2022/05/05 10:11:14;;;;;;;17.33;9.70;;;17.10;99.90;;;;;;5093824;28;20167;-75
2022/05/05 10:13:40;;;;;;;14.90;10.10;;;17.20;99.90;;;;;;5093726;28;20250;-74
2022/05/05 10:16:07;;;;;;;14.90;9.50;;;17.20;99.90;;;;;;5093700;28;20185;-74
2022/05/05 10:18:37;;;;;;;14.73;9.35;;;17.30;99.90;;;;;;5093497;28;20165;-74
2022/05/05 10:21:04;;;;;;;12.02;9.50;;;17.40;99.90;;;;;;5092385;28;20633;-75
2022/05/05 10:23:41;;;;;;;16.38;9.30;;;17.40;99.90;;;;;;5093586;28;20205;-75
2022/05/05 10:26:08;;;;;;;13.02;8.82;;;17.30;99.90;;;;;;5093684;28;20163;-74
2022/05/05 10:28:47;;;;;;;17.35;9.35;;;17.40;99.90;;;;;;5093586;28;20257;-74
2022/05/05 10:31:37;;;;;;;14.38;9.57;;;17.20;99.90;;;;;;5093512;28;20163;-75
2022/05/05 10:34:09;;;;;;;12.45;9.98;;;17.20;99.90;;;;;;5093435;28;20206;-75
2022/05/05 10:36:36;;;;;;;17.38;10.02;;;17.20;99.90;;;;;;5093527;28;20171;-75
2022/05/05 10:39:23;;;;;;;16.38;10.43;;;17.10;99.90;;;;;;5093474;28;20197;-75
2022/05/05 10:41:51;;;;;;;12.65;9.23;;;17.10;99.90;;;;;;5093424;28;20194;-75
2022/05/05 10:44:16;;;;;;;17.40;10.43;;;17.10;99.90;;;;;;5093176;28;20254;-75
2022/05/05 10:46:57;;;;;;;15.23;9.82;;;17.00;99.90;;;;;;5093455;28;20183;-75
2022/05/05 10:49:35;;;;;;;17.23;9.27;;;17.00;99.90;;;;;;5093366;28;20201;-75
2022/05/05 10:52:16;;;;;;;13.63;9.65;;;16.90;99.90;;;;;;5093316;28;20163;-75
2022/05/05 10:54:47;;;;;;;13.43;9.52;;;16.80;99.90;;;;;;5093335;28;20731;-75
2022/05/05 10:57:25;;;;;;;11.85;8.75;;;16.80;99.90;;;;;;5093312;28;20224;-75
2022/05/05 11:00:13;;;;;;;14.20;9.75;;;16.90;99.90;;;;;;5093287;28;20178;-75
2022/05/05 11:02:58;;;;;;;14.98;9.10;;;17.00;99.90;;;;;;5093131;28;20174;-75
2022/05/05 11:05:31;;;;;;;13.15;9.38;;;17.10;99.90;;;;;;5093067;28;20176;-75
2022/05/05 11:08:07;;;;;;;16.60;8.77;;;17.20;99.90;;;;;;5093202;28;20629;-75
2022/05/05 11:10:42;;;;;;;16.25;9.02;;;17.10;99.90;;;;;;5093170;28;20624;-75
2022/05/05 11:13:37;;;;;;;12.60;8.20;;;17.20;99.90;;;;;;5093117;28;20249;-75
2022/05/05 11:22:24;;;;;;;11.35;7.90;;;17.20;99.90;;;;;;5093356;28;20263;-75
2022/05/05 11:24:52;;;;;;;11.90;8.65;;;17.20;99.90;;;;;;5092953;28;20202;-75
2022/05/05 11:27:18;;;;;;;10.52;8.45;;;17.10;99.90;;;;;;5092970;28;20174;-75
2022/05/05 11:29:54;;;;;;;16.23;8.80;;;17.10;99.90;;;;;;5093540;28;20530;-75
2022/05/05 11:32:21;;;;;;;13.25;7.78;;;17.10;99.90;;;;;;5096898;28;20163;-75
2022/05/05 11:34:48;;;;;;;18.58;8.23;;;17.10;99.90;;;;;;5096673;28;20192;-75
2022/05/05 11:37:14;;;;;;;16.77;9.15;;;17.10;99.90;;;;;;5096811;28;20636;-75
2022/05/05 11:39:40;;;;;;;11.77;8.57;;;17.00;99.90;;;;;;5096668;28;20254;-75
2022/05/05 11:42:10;;;;;;;11.10;9.00;;;17.00;99.90;;;;;;5096579;28;20167;-75
2022/05/05 11:44:37;;;;;;;14.30;8.25;;;17.00;99.90;;;;;;5096297;28;20227;-75
2022/05/05 11:47:11;;;;;;;18.58;9.48;;;17.00;99.90;;;;;;5096529;28;20218;-75
2022/05/05 11:49:38;;;;;;;15.32;9.52;;;17.00;99.90;;;;;;5096515;28;20166;-75
2022/05/05 11:52:04;;;;;;;16.98;9.05;;;17.00;99.90;;;;;;5096458;28;20167;-75
2022/05/05 11:54:32;;;;;;;12.38;8.95;;;17.00;99.90;;;;;;5096305;28;20178;-76
2022/05/05 11:56:59;;;;;;;15.95;9.77;;;17.10;99.90;;;;;;5096632;28;20173;-75
2022/05/05 12:02:13;;;;;;;11.35;8.27;;;17.00;99.90;;;;;;5096525;28;20178;-76
2022/05/05 12:04:49;;;;;;;14.73;9.27;;;17.10;99.90;;;;;;5096088;28;20202;-75
2022/05/05 12:07:22;;;;;;;11.57;8.57;;;17.20;99.90;;;;;;5096079;28;20234;-75
2022/05/05 12:09:50;;;;;;;13.50;8.23;;;17.30;99.90;;;;;;5096164;28;20163;-75
2022/05/05 12:12:17;;;;;;;13.43;8.18;;;17.50;99.90;;;;;;5096073;28;20651;-76
2022/05/05 12:14:47;;;;;;;12.10;8.25;;;17.50;99.90;;;;;;5095949;28;20167;-76
2022/05/05 12:17:21;;;;;;;17.13;9.02;;;17.50;99.90;;;;;;5095996;28;20173;-76
2022/05/05 12:19:52;;;;;;;11.40;8.02;;;17.30;99.90;;;;;;5095907;28;20530;-75
2022/05/05 12:22:29;;;;;;;12.77;8.50;;;17.10;99.90;;;;;;5095904;28;20174;-75
2022/05/05 12:25:00;;;;;;;13.70;8.95;;;17.00;99.90;;;;;;5095748;28;20244;-75
2022/05/05 12:27:26;;;;;;;12.13;8.23;;;16.90;99.90;;;;;;5095757;28;20161;-75
2022/05/05 12:29:52;;;;;;;11.90;8.88;;;16.80;99.90;;;;;;5095697;28;20527;-75
2022/05/05 12:32:19;;;;;;;12.73;8.50;;;17.00;99.90;;;;;;5095656;28;20167;-75
2022/05/05 12:34:45;;;;;;;17.17;10.05;;;17.10;99.90;;;;;;5095529;28;20586;-75
2022/05/05 12:37:14;;;;;;;9.70;8.63;;;17.20;99.90;;;;;;5094391;28;20167;-75
2022/05/05 12:40:03;;;;;;;8.88;7.47;;;17.40;99.90;;;;;;5095547;28;20210;-75
2022/05/05 12:42:51;;;;;;;11.95;8.35;;;17.70;99.90;;;;;;5095147;28;20164;-75
2022/05/05 12:45:26;;;;;;;9.18;7.32;;;18.00;99.90;;;;;;5095474;28;20233;-75
2022/05/05 12:47:58;;;;;;;9.73;7.75;;;18.30;99.90;;;;;;5095421;28;20722;-75
2022/05/05 12:50:36;;;;;;;9.50;8.10;;;18.50;99.90;;;;;;5095402;28;20528;-75
2022/05/05 13:01:47;;;;;;;13.88;8.50;;;18.10;99.90;;;;;;5095402;28;20182;-75
2022/05/05 13:04:15;;;;;;;9.30;7.38;;;17.90;99.90;;;;;;5094996;28;20195;-76
2022/05/05 13:06:42;;;;;;;11.20;6.57;;;17.70;99.90;;;;;;5095001;28;20168;-76
2022/05/05 13:09:09;;;;;;;11.77;7.95;;;17.50;99.90;;;;;;5094974;28;20170;-75
2022/05/05 13:11:36;;;;;;;10.25;6.90;;;17.50;99.90;;;;;;5094780;28;20159;-75
2022/05/05 13:14:02;;;;;;;11.15;7.80;;;17.50;99.90;;;;;;5094867;28;20245;-76
2022/05/05 13:16:29;;;;;;;10.80;7.15;;;17.30;99.90;;;;;;5094797;28;20528;-75
2022/05/05 13:18:57;;;;;;;7.28;6.40;;;17.20;99.90;;;;;;5094824;28;20179;-75
2022/05/05 13:21:23;;;;;;;11.00;6.80;;;17.10;99.90;;;;;;5094694;28;20168;-75
2022/05/05 13:23:49;;;;;;;9.25;6.30;;;17.10;99.90;;;;;;5094649;28;20217;-75
2022/05/05 13:26:15;;;;;;;14.00;6.90;;;17.20;99.90;;;;;;5094568;28;20166;-75
2022/05/05 13:28:40;;;;;;;7.75;6.38;;;17.20;99.90;;;;;;5094724;28;20246;-75
2022/05/05 13:31:06;;;;;;;10.02;6.22;;;17.20;99.90;;;;;;5094534;28;20162;-76
2022/05/05 13:33:32;;;;;;;12.48;7.53;;;17.10;99.90;;;;;;5094559;28;20171;-75
2022/05/05 13:35:58;;;;;;;7.55;6.85;;;17.10;99.90;;;;;;5093081;28;20195;-75
2022/05/05 13:38:24;;;;;;;9.10;7.05;;;17.10;99.90;;;;;;5094480;28;20186;-75
2022/05/05 13:40:50;;;;;;;11.70;6.40;;;17.20;99.90;;;;;;5094308;28;20171;-75
2022/05/05 13:43:16;;;;;;;8.48;5.93;;;17.30;99.90;;;;;;5094044;28;20223;-75
2022/05/05 13:45:41;;;;;;;8.77;7.38;;;17.40;99.90;;;;;;5094275;28;20175;-75
2022/05/05 13:48:07;;;;;;;9.95;6.53;;;17.40;99.90;;;;;;5094217;28;20220;-74
2022/05/05 13:50:33;;;;;;;8.20;6.88;;;17.40;99.90;;;;;;5094220;28;20175;-74
2022/05/05 13:52:58;;;;;;;14.02;6.82;;;17.40;99.90;;;;;;5093535;28;20178;-74
2022/05/05 13:55:26;;;;;;;7.80;6.30;;;17.40;99.90;;;;;;5094056;28;20167;-73
2022/05/05 13:57:52;;;;;;;10.30;5.75;;;17.40;99.90;;;;;;5094105;28;20167;-76
2022/05/05 14:00:18;;;;;;;11.52;7.78;;;17.50;99.90;;;;;;5093917;28;20167;-77
2022/05/05 14:02:44;;;;;;;9.07;6.53;;;17.50;99.90;;;;;;5093954;28;20262;-77
2022/05/05 14:05:10;;;;;;;13.18;6.18;;;17.60;99.90;;;;;;5093877;28;20164;-77
2022/05/05 14:13:04;;;;;;;7.68;6.97;;;17.50;99.90;;;;;;5094074;28;20312;-77
2022/05/05 14:15:31;;;;;;;9.32;6.50;;;17.50;99.90;;;;;;5093675;28;20668;-77
2022/05/05 14:17:57;;;;;;;10.48;7.35;;;17.50;99.90;;;;;;5093732;28;20163;-77
2022/05/05 14:20:23;;;;;;;13.25;6.43;;;17.60;99.90;;;;;;5093590;28;20537;-76
2022/05/05 14:22:48;;;;;;;17.85;6.70;;;17.70;99.90;;;;;;5093633;28;20167;-76
2022/05/05 14:25:14;;;;;;;8.88;7.05;;;17.90;99.90;;;;;;5093548;28;20167;-76
2022/05/05 14:27:42;;;;;;;9.05;6.78;;;18.10;99.90;;;;;;5093608;28;20178;-76
2022/05/05 14:30:08;;;;;;;9.30;6.32;;;18.30;99.90;;;;;;5093678;28;20552;-76
2022/05/05 14:32:34;;;;;;;8.35;6.10;;;18.40;99.90;;;;;;5093653;28;20242;-76
2022/05/05 14:35:00;;;;;;;11.00;6.35;;;18.60;99.90;;;;;;5093332;28;20235;-77
2022/05/05 14:37:27;;;;;;;7.97;5.55;;;;;;;;;;5093525;28;20258;-78
2022/05/05 14:39:52;;;;;;;8.65;7.05;;;19.00;99.90;;;;;;5093468;28;20178;-77
2022/05/05 14:42:18;;;;;;;8.90;6.28;;;18.80;99.90;;;;;;5092263;28;20167;-77
2022/05/05 14:44:43;;;;;;;15.98;6.63;;;18.80;99.90;;;;;;5093185;28;20268;-77
2022/05/05 14:47:10;;;;;;;8.88;6.32;;;18.80;99.90;;;;;;5093364;28;20175;-77
2022/05/05 14:49:37;;;;;;;8.38;6.30;;;18.80;99.90;;;;;;5093312;28;20164;-77
2022/05/05 14:52:03;;;;;;;9.10;6.75;;;18.90;99.90;;;;;;5093314;28;20240;-77
2022/05/05 14:54:29;;;;;;;10.68;6.43;;;19.30;99.90;;;;;;5093269;28;20652;-78
2022/05/05 14:56:55;;;;;;;7.47;6.78;;;19.80;99.90;;;;;;5091903;28;20182;-77
2022/05/05 14:59:21;;;;;;;9.38;6.63;;;20.40;99.90;;;;;;5093319;28;20167;-78
2022/05/05 15:01:47;;;;;;;7.28;6.47;;;20.20;99.90;;;;;;5093138;28;20167;-77
2022/05/05 15:04:12;;;;;;;10.55;6.55;;;20.10;99.90;;;;;;5093130;28;20259;-77
2022/05/05 15:06:38;;;;;;;7.95;6.40;;;20.00;99.90;;;;;;5097164;28;20613;-82
2022/05/05 15:09:05;;;;;;;61.35;9.70;;;19.90;99.90;;;;;;5097392;28;20343;-79
2022/05/05 15:11:31;;;;;;;11.00;6.55;;;19.70;99.90;;;;;;5097243;28;20159;-73
2022/05/05 15:13:56;;;;;;;10.77;6.72;;;19.70;99.90;;;;;;5097169;28;20621;-77
2022/05/05 15:16:22;;;;;;;7.35;6.00;;;19.50;99.90;;;;;;5097125;28;20167;-77
2022/05/05 15:18:48;;;;;;;7.35;6.18;;;19.40;99.90;;;;;;5097091;28;20266;-76
2022/05/05 15:21:14;;;;;;;7.82;5.60;;;19.20;99.90;;;;;;5097091;28;20213;-76
2022/05/05 15:23:41;;;;;;;6.30;5.70;;;19.00;99.90;;;;;;5096923;28;20206;-77
2022/05/05 15:26:07;;;;;;;6.80;6.22;;;19.00;99.90;;;;;;5096915;28;20163;-78
2022/05/05 15:28:33;;;;;;;7.57;5.40;;;19.00;99.90;;;;;;5096922;28;20164;-78
2022/05/05 15:31:03;;;;;;;6.25;5.00;;;19.10;99.90;;;;;;5095526;28;20170;-77
2022/05/05 15:33:30;;;;;;;11.45;5.50;;;19.30;99.90;;;;;;5096757;28;20178;-77
2022/05/05 15:35:55;;;;;;;7.60;5.45;;;19.30;99.90;;;;;;5095366;28;20197;-80
2022/05/05 15:38:24;;;;;;;6.20;5.60;;;19.30;99.90;;;;;;5096744;28;20526;-80
2022/05/05 15:40:50;;;;;;;6.95;5.63;;;19.20;99.90;;;;;;5096484;28;20163;-80
2022/05/05 15:43:15;;;;;;;12.40;6.00;;;19.20;99.90;;;;;;5096303;28;20225;-82
2022/05/05 15:45:41;;;;;;;19.90;8.35;;;19.20;99.90;;;;;;5096625;28;20525;-82
2022/05/05 15:48:07;;;;;;;8.60;6.63;;;19.30;99.90;;;;;;5096555;28;20167;-81
2022/05/05 15:50:33;;;;;;;7.13;6.28;;;19.30;99.90;;;;;;5096497;28;20570;-80
2022/05/05 15:52:58;;;;;;;8.52;5.78;;;19.00;99.90;;;;;;5095203;28;20179;-80
2022/05/05 15:55:24;;;;;;;11.10;6.03;;;18.90;99.90;;;;;;5096489;28;20617;-80
2022/05/05 15:57:49;;;;;;;9.95;6.50;;;18.80;99.90;;;;;;5096347;28;20195;-80
2022/05/05 16:00:16;;;;;;;6.80;6.10;;;18.70;99.90;;;;;;5096315;28;20224;-80
2022/05/05 16:02:45;;;;;;;11.70;5.63;;;18.50;99.90;;;;;;5096178;28;20248;-80
2022/05/05 16:05:12;;;;;;;8.45;6.15;;;18.30;99.90;;;;;;5096239;28;20190;-80
2022/05/05 16:07:38;;;;;;;9.82;5.80;;;18.30;99.90;;;;;;5096182;28;20186;-80
2022/05/05 16:10:05;;;;;;;8.88;5.80;;;18.20;99.90;;;;;;5096162;28;20634;-80
2022/05/05 16:12:30;;;;;;;8.50;6.78;;;18.10;99.90;;;;;;5096065;28;20170;-80
2022/05/05 16:14:56;;;;;;;6.50;5.75;;;18.00;99.90;;;;;;5095672;28;20163;-80
2022/05/05 16:17:22;;;;;;;7.18;5.15;;;17.80;99.90;;;;;;5095554;28;20183;-80
2022/05/05 16:19:48;;;;;;;6.18;5.60;;;17.80;99.90;;;;;;5095994;28;20167;-80
2022/05/05 16:22:14;;;;;;;7.05;5.47;;;17.90;99.90;;;;;;5095875;28;20697;-80
2022/05/05 16:30:08;;;;;;;7.03;5.15;;;17.70;99.90;;;;;;5095804;28;20178;-80
2022/05/05 16:32:38;;;;;;;8.18;5.32;;;17.80;99.90;;;;;;5095711;28;20216;-80
2022/05/05 16:35:04;;;;;;;6.05;5.43;;;17.80;99.90;;;;;;5095574;28;20244;-80
2022/05/05 16:37:31;;;;;;;5.50;4.70;;;17.80;99.90;;;;;;5095622;28;20171;-80
2022/05/05 16:39:58;;;;;;;14.43;5.60;;;17.90;99.90;;;;;;5095465;28;20213;-80
2022/05/05 16:42:24;;;;;;;5.15;4.55;;;18.00;99.90;;;;;;5095363;28;20199;-79
2022/05/05 16:44:49;;;;;;;7.93;5.10;;;18.00;99.90;;;;;;5095430;28;20226;-80
2022/05/05 16:47:15;;;;;;;6.40;4.97;;;18.00;99.90;;;;;;5095453;28;20508;-80
2022/05/05 16:49:41;;;;;;;5.15;4.68;;;18.10;99.90;;;;;;5095456;28;20283;-80
2022/05/05 16:52:06;;;;;;;6.72;5.70;;;18.30;99.90;;;;;;5095369;28;20613;-81
2022/05/05 16:54:33;;;;;;;5.22;4.82;;;18.40;99.90;;;;;;5095269;28;20167;-81
2022/05/05 16:56:59;;;;;;;8.80;4.75;;;18.50;99.90;;;;;;5095249;28;20163;-81
2022/05/05 16:59:24;;;;;;;6.50;4.88;;;18.50;99.90;;;;;;5095191;28;20186;-81
2022/05/05 17:01:50;;;;;;;5.15;4.65;;;18.30;99.90;;;;;;5095096;28;20632;-81
2022/05/05 17:04:15;;;;;;;5.18;4.68;;;18.20;99.90;;;;;;5095014;28;20555;-81
2022/05/05 17:06:41;;;;;;;5.45;4.75;;;18.40;99.90;;;;;;5095084;28;20217;-81
2022/05/05 17:09:07;;;;;;;6.00;4.38;;;18.50;99.90;;;;;;5094950;28;20198;-81
2022/05/05 17:11:34;;;;;;;6.38;4.53;;;18.70;99.90;;;;;;5094925;28;20220;-81
2022/05/05 17:14:00;;;;;;;4.65;4.07;;;18.70;99.90;;;;;;5094796;28;20170;-81
2022/05/05 17:16:26;;;;;;;5.13;4.72;;;19.00;99.90;;;;;;5093543;28;20192;-81
2022/05/05 17:18:52;;;;;;;5.68;4.55;;;19.40;99.90;;;;;;5093433;28;20175;-81
2022/05/05 17:21:18;;;;;;;4.93;4.45;;;19.70;99.90;;;;;;5094683;28;20166;-81
2022/05/05 17:23:43;;;;;;;5.00;4.03;;;20.00;99.90;;;;;;5094478;28;20475;-81
2022/05/05 17:26:09;;;;;;;4.35;4.00;;;20.30;99.90;;;;;;5094567;28;20170;-81
2022/05/05 17:28:35;;;;;;;5.55;3.88;;;20.60;99.90;;;;;;5093615;28;20171;-81
2022/05/05 17:31:01;;;;;;;4.75;4.25;;;20.70;99.90;;;;;;5094497;28;20166;-81
2022/05/05 17:33:27;;;;;;;7.07;4.25;;;20.70;99.90;;;;;;5094438;28;20175;-81
2022/05/05 17:35:52;;;;;;;7.95;3.78;;;20.60;99.90;;;;;;5094315;28;20198;-81
2022/05/05 17:38:19;;;;;;;4.32;3.78;;;20.60;99.90;;;;;;5094346;28;20167;-81
2022/05/05 17:40:44;;;;;;;5.45;3.60;;;20.40;99.90;;;;;;5094257;28;20252;-81
2022/05/05 17:43:10;;;;;;;5.63;3.50;;;20.30;99.90;;;;;;5092648;28;20309;-80
2022/05/05 17:51:07;;;;;;;3.45;3.15;;;19.90;99.90;;;;;;5093975;28;20163;-81
2022/05/05 17:53:33;;;;;;;6.57;3.55;;;19.80;99.90;;;;;;5093918;28;20171;-81
2022/05/05 17:55:59;;;;;;;4.03;2.92;;;19.70;99.90;;;;;;5093862;28;20697;-81
2022/05/05 17:58:25;;;;;;;3.58;3.28;;;19.60;99.90;;;;;;5093777;28;20163;-81
2022/05/05 18:00:51;;;;;;;5.45;3.88;;;19.70;99.90;;;;;;5093932;28;20624;-81
2022/05/05 18:03:16;;;;;;;5.07;3.67;;;19.40;99.90;;;;;;5093620;28;20191;-81
2022/05/05 18:05:42;;;;;;;3.70;3.40;;;19.30;99.90;;;;;;5093676;28;20212;-81
2022/05/05 18:08:08;;;;;;;3.30;3.03;;;19.00;99.90;;;;;;5093696;28;20170;-81
2022/05/05 18:10:35;;;;;;;4.20;3.80;;;19.00;99.90;;;;;;5093602;28;20164;-81
2022/05/05 18:13:00;;;;;;;6.43;4.00;;;19.00;99.90;;;;;;5093577;28;20163;-81
2022/05/05 18:15:26;;;;;;;6.85;3.83;;;18.70;99.90;;;;;;5093524;28;20163;-81
2022/05/05 18:17:52;;;;;;;4.53;3.90;;;18.70;99.90;;;;;;5093488;28;20753;-82
2022/05/05 18:20:18;;;;;;;4.40;3.75;;;18.50;99.90;;;;;;5093511;28;20175;-81
2022/05/05 18:22:44;;;;;;;9.52;8.63;;;18.40;99.90;;;;;;5092174;28;20179;-81
2022/05/05 18:25:10;;;;;;;8.90;6.28;;;18.20;99.90;;;;;;5093347;28;20274;-81
2022/05/05 18:27:36;;;;;;;5.97;4.57;;;18.00;99.90;;;;;;5093300;28;20224;-81
2022/05/05 18:30:05;;;;;;;5.68;3.55;;;17.80;99.90;;;;;;5093399;28;20551;-81
2022/05/05 18:32:31;;;;;;;6.10;3.05;;;17.70;99.90;;;;;;5093263;28;20628;-81
2022/05/05 18:34:56;;;;;;;3.47;3.15;;;17.40;99.90;;;;;;5093195;28;20190;-81
2022/05/05 18:37:22;;;;;;;3.17;2.97;;;17.20;99.90;;;;;;5093313;28;20535;-81
2022/05/05 18:39:49;;;;;;;4.72;3.33;;;17.00;99.90;;;;;;5093027;28;20536;-81
2022/05/05 18:42:16;;;;;;;4.22;3.63;;;16.80;99.90;;;;;;5093284;28;20223;-81
2022/05/05 18:44:42;;;;;;;4.50;3.33;;;16.60;99.90;;;;;;5091969;28;20223;-81
2022/05/05 18:47:08;;;;;;;5.93;3.15;;;16.30;99.90;;;;;;5093046;28;20636;-81
2022/05/05 18:49:36;;;;;;;5.28;3.50;;;16.10;99.90;;;;;;5093132;28;20176;-81
2022/05/05 18:52:06;;;;;;;3.00;2.80;;;15.90;99.90;;;;;;5093157;28;20203;-81
2022/05/05 18:54:33;;;;;;;4.07;2.95;;;15.70;99.90;;;;;;5093090;28;20170;-81
2022/05/05 18:56:59;;;;;;;4.70;3.38;;;15.50;99.90;;;;;;5093120;28;20202;-81
